Time;durP1;ratioP1;P1;durP2;ratioP2;P2;SDS_P1;SDS_P2;PMS_P1;PMS_P2;Temp;Humidity;BMP_temperature;BMP_pressure;BME280_temperature;BME280_humidity;BME280_pressure;Samples;Min_cycle;Max_cycle;Signal;HPM_P1;HPM_P2
2022/11/06 00:00:48;;;;;;;;;;;;;;;;;;2115910;28;19919;-45
2022/11/06 00:01:48;;;;;;;;;;;;;;;;;;2115821;28;20287;-44
2022/11/06 00:02:49;;;;;;;;;;;;;;;;;;2115846;28;19920;-45
2022/11/06 00:03:50;;;;;;;;;;;;;;;;;;2116060;28;19931;-42
2022/11/06 00:04:51;;;;;;;;;;;;;;;;;;2116032;28;20011;-45
2022/11/06 00:07:11;;;;;;;;;;;;;;;;;;2115996;28;19919;-42
2022/11/06 00:08:12;;;;;;;;;;;;;;;;;;2115789;28;19920;-41
2022/11/06 00:09:13;;;;;;;;;;;;;;;;;;2115768;28;19920;-42
2022/11/06 00:10:14;;;;;;;;;;;;;;;;;;2115711;28;20177;-42
2022/11/06 00:11:15;;;;;;;;;;;;;;;;;;2115654;28;19923;-42
2022/11/06 00:12:15;;;;;;;;;;;;;;;;;;2115762;28;20386;-42
2022/11/06 00:13:16;;;;;;;;;;;;;;;;;;2115615;28;19920;-42
2022/11/06 00:14:17;;;;;;;;;;;;;;;;;;2115394;28;19963;-42
2022/11/06 00:15:18;;;;;;;;;;;;;;;;;;2115527;28;19955;-42
2022/11/06 00:16:19;;;;;;;;;;;;;;;;;;2115695;28;20319;-42
2022/11/06 00:17:20;;;;;;;;;;;;;;;;;;2115786;28;20002;-42
2022/11/06 00:18:21;;;;;;;;;;;;;;;;;;2115546;28;19920;-42
2022/11/06 00:19:22;;;;;;;;;;;;;;;;;;2115629;28;20018;-42
2022/11/06 00:20:22;;;;;;;;;;;;;;;;;;2115760;28;19951;-42
2022/11/06 00:21:23;;;;;;;;;;;;;;;;;;2115684;28;20488;-42
2022/11/06 00:22:24;;;;;;;;;;;;;;;;;;2115923;28;19927;-43
2022/11/06 00:23:25;;;;;;;;;;;;;;;;;;2115717;28;19924;-42
2022/11/06 00:24:25;;;;;;;;;;;;;;;;;;2115597;28;19920;-42
2022/11/06 00:25:26;;;;;;;;;;;;;;;;;;2115628;28;19980;-42
2022/11/06 00:26:27;;;;;;;;;;;;;;;;;;2115862;28;20002;-42
2022/11/06 00:27:28;;;;;;;;;;;;;;;;;;2115651;28;20370;-42
2022/11/06 00:28:29;;;;;;;;;;;;;;;;;;2115588;28;19946;-42
2022/11/06 00:29:30;;;;;;;;;;;;;;;;;;2115691;28;19927;-42
2022/11/06 00:30:30;;;;;;;;;;;;;;;;;;2115601;28;20362;-42
2022/11/06 00:31:31;;;;;;;;;;;;;;;;;;2115516;28;19920;-42
2022/11/06 00:32:32;;;;;;;;;;;;;;;;;;2115792;28;20425;-44
2022/11/06 00:33:33;;;;;;;;;;;;;;;;;;2115470;28;19920;-45
2022/11/06 00:34:34;;;;;;;;;;;;;;;;;;2115580;28;20500;-45
2022/11/06 00:35:35;;;;;;;;;;;;;;;;;;2115554;28;19930;-44
2022/11/06 00:36:36;;;;;;;;;;;;;;;;;;2115693;28;19962;-45
2022/11/06 00:37:36;;;;;;;;;;;;;;;;;;2115409;28;19963;-46
2022/11/06 00:38:37;;;;;;;;;;;;;;;;;;2115661;28;19919;-44
2022/11/06 00:39:38;;;;;;;;;;;;;;;;;;2115505;28;19919;-45
2022/11/06 00:40:39;;;;;;;;;;;;;;;;;;2115655;28;19958;-45
2022/11/06 00:41:40;;;;;;;;;;;;;;;;;;2115546;28;20288;-45
2022/11/06 00:42:41;;;;;;;;;;;;;;;;;;2115595;28;20154;-46
2022/11/06 00:43:42;;;;;;;;;;;;;;;;;;2122051;28;19926;-41
2022/11/06 00:44:43;;;;;;;;;;;;;;;;;;2124123;28;19927;-44
2022/11/06 00:45:44;;;;;;;;;;;;;;;;;;2124298;28;19976;-45
2022/11/06 00:46:45;;;;;;;;;;;;;;;;;;2123896;28;19967;-45
2022/11/06 00:47:46;;;;;;;;;;;;;;;;;;2123712;28;20010;-45
2022/11/06 00:48:47;;;;;;;;;;;;;;;;;;2124141;28;19964;-42
2022/11/06 00:49:48;;;;;;;;;;;;;;;;;;2124044;28;19919;-42
2022/11/06 00:50:49;;;;;;;;;;;;;;;;;;2123903;28;19919;-42
2022/11/06 00:51:49;;;;;;;;;;;;;;;;;;2120622;28;19970;-42
2022/11/06 00:52:50;;;;;;;;;;;;;;;;;;2115448;28;20004;-42
2022/11/06 00:53:51;;;;;;;;;;;;;;;;;;2115376;28;20387;-42
2022/11/06 00:54:52;;;;;;;;;;;;;;;;;;2115411;28;19927;-42
2022/11/06 00:55:53;;;;;;;;;;;;;;;;;;2115413;28;20010;-42
2022/11/06 00:56:54;;;;;;;;;;;;;;;;;;2115267;28;20022;-42
2022/11/06 00:57:54;;;;;;;;;;;;;;;;;;2115322;28;19928;-42
2022/11/06 00:58:55;;;;;;;;;;;;;;;;;;2115535;28;19927;-42
2022/11/06 00:59:56;;;;;;;;;;;;;;;;;;2115433;28;19926;-42
2022/11/06 01:00:57;;;;;;;;;;;;;;;;;;2115353;28;19978;-42
2022/11/06 01:01:57;;;;;;;;;;;;;;;;;;2115377;28;19920;-42
2022/11/06 01:02:59;;;;;;;;;;;;;;;;;;2115321;28;19919;-42
2022/11/06 01:03:59;;;;;;;;;;;;;;;;;;2115465;28;19919;-42
2022/11/06 01:05:01;;;;;;;;;;;;;;;;;;2115371;28;19962;-42
2022/11/06 01:06:01;;;;;;;;;;;;;;;;;;2115344;28;19941;-42
2022/11/06 01:07:02;;;;;;;;;;;;;;;;;;2115453;28;19920;-41
2022/11/06 01:08:03;;;;;;;;;;;;;;;;;;2115342;28;20052;-42
2022/11/06 01:09:04;;;;;;;;;;;;;;;;;;2115370;28;19919;-42
2022/11/06 01:10:05;;;;;;;;;;;;;;;;;;2115440;28;19930;-42
2022/11/06 01:11:06;;;;;;;;;;;;;;;;;;2115258;28;19977;-42
2022/11/06 01:12:07;;;;;;;;;;;;;;;;;;2115172;28;20010;-42
2022/11/06 01:13:16;;;;;;;;;;;;;;;;;;2115414;28;19931;-42
2022/11/06 01:14:17;;;;;;;;;;;;;;;;;;2114997;28;19935;-42
2022/11/06 01:15:17;;;;;;;;;;;;;;;;;;2115278;28;20306;-42
2022/11/06 01:16:18;;;;;;;;;;;;;;;;;;2115166;28;20003;-41
2022/11/06 01:17:19;;;;;;;;;;;;;;;;;;2115307;28;20402;-42
2022/11/06 01:18:20;;;;;;;;;;;;;;;;;;2115220;28;19920;-42
2022/11/06 01:19:21;;;;;;;;;;;;;;;;;;2115397;28;19926;-42
2022/11/06 01:20:22;;;;;;;;;;;;;;;;;;2115205;28;19920;-42
2022/11/06 01:21:22;;;;;;;;;;;;;;;;;;2115376;28;20006;-42
2022/11/06 01:22:23;;;;;;;;;;;;;;;;;;2115110;28;20031;-42
2022/11/06 01:23:24;;;;;;;;;;;;;;;;;;2115451;28;20004;-45
2022/11/06 01:24:25;;;;;;;;;;;;;;;;;;2115202;28;19920;-45
2022/11/06 01:25:26;;;;;;;;;;;;;;;;;;2115206;28;20376;-45
2022/11/06 01:26:27;;;;;;;;;;;;;;;;;;2114404;28;19927;-45
2022/11/06 01:27:38;;;;;;;;;;;;;;;;;;2115088;28;20333;-45
2022/11/06 01:28:39;;;;;;;;;;;;;;;;;;2115337;28;19926;-45
2022/11/06 01:29:40;;;;;;;;;;;;;;;;;;2115191;28;19927;-44
2022/11/06 01:30:40;;;;;;;;;;;;;;;;;;2115220;28;19963;-45
2022/11/06 01:31:41;;;;;;;;;;;;;;;;;;2115209;28;19946;-45
2022/11/06 01:32:42;;;;;;;;;;;;;;;;;;2115204;28;19920;-45
2022/11/06 01:33:43;;;;;;;;;;;;;;;;;;2115155;28;20043;-45
2022/11/06 01:34:45;;;;;;;;;;;;;;;;;;2115368;28;20055;-42
2022/11/06 01:35:46;;;;;;;;;;;;;;;;;;2122809;28;19923;-45
2022/11/06 01:36:47;;;;;;;;;;;;;;;;;;2123512;28;19933;-45
2022/11/06 01:37:47;;;;;;;;;;;;;;;;;;2123605;28;19919;-45
2022/11/06 01:38:48;;;;;;;;;;;;;;;;;;2123614;28;19919;-45
2022/11/06 01:39:49;;;;;;;;;;;;;;;;;;2123819;28;20325;-45
2022/11/06 01:40:50;;;;;;;;;;;;;;;;;;2124090;28;19959;-42
2022/11/06 01:41:51;;;;;;;;;;;;;;;;;;2123555;28;20287;-41
2022/11/06 01:42:52;;;;;;;;;;;;;;;;;;2123671;28;19919;-42
2022/11/06 01:43:53;;;;;;;;;;;;;;;;;;2123827;28;19919;-42
2022/11/06 01:44:54;;;;;;;;;;;;;;;;;;2123505;28;20261;-42
2022/11/06 01:45:55;;;;;;;;;;;;;;;;;;2123730;28;20380;-42
2022/11/06 01:46:55;;;;;;;;;;;;;;;;;;2123624;28;20341;-42
2022/11/06 01:47:56;;;;;;;;;;;;;;;;;;2123517;28;19976;-42
2022/11/06 01:48:57;;;;;;;;;;;;;;;;;;2123552;28;19981;-42
2022/11/06 01:49:58;;;;;;;;;;;;;;;;;;2123498;28;19926;-42
2022/11/06 01:50:59;;;;;;;;;;;;;;;;;;2123660;28;19925;-42
2022/11/06 01:51:59;;;;;;;;;;;;;;;;;;2118914;28;20337;-42
2022/11/06 01:53:01;;;;;;;;;;;;;;;;;;2115217;28;19920;-42
2022/11/06 01:54:02;;;;;;;;;;;;;;;;;;2115066;28;19973;-42
2022/11/06 01:55:02;;;;;;;;;;;;;;;;;;2115150;28;19919;-42
2022/11/06 01:56:03;;;;;;;;;;;;;;;;;;2115049;28;20005;-42
2022/11/06 01:57:04;;;;;;;;;;;;;;;;;;2114854;28;19930;-43
2022/11/06 01:58:05;;;;;;;;;;;;;;;;;;2114995;28;19977;-42
2022/11/06 01:59:06;;;;;;;;;;;;;;;;;;2115010;28;20010;-42
2022/11/06 02:00:07;;;;;;;;;;;;;;;;;;2114925;28;19919;-42
2022/11/06 02:01:07;;;;;;;;;;;;;;;;;;2115007;28;19920;-42
2022/11/06 02:02:08;;;;;;;;;;;;;;;;;;2114993;28;20367;-42
2022/11/06 02:03:11;;;;;;;;;;;;;;;;;;2114921;28;19920;-42
2022/11/06 02:04:12;;;;;;;;;;;;;;;;;;2115354;28;20002;-42
2022/11/06 02:05:13;;;;;;;;;;;;;;;;;;2114921;28;19919;-42
2022/11/06 02:06:13;;;;;;;;;;;;;;;;;;2114984;28;19920;-42
2022/11/06 02:07:14;;;;;;;;;;;;;;;;;;2115028;28;19962;-42
2022/11/06 02:08:15;;;;;;;;;;;;;;;;;;2115114;28;20081;-45
2022/11/06 02:09:16;;;;;;;;;;;;;;;;;;2115045;28;19920;-45
2022/11/06 02:10:17;;;;;;;;;;;;;;;;;;2114901;28;19926;-45
2022/11/06 02:11:18;;;;;;;;;;;;;;;;;;2115072;28;20013;-45
2022/11/06 02:12:19;;;;;;;;;;;;;;;;;;2115108;28;19927;-42
2022/11/06 02:13:20;;;;;;;;;;;;;;;;;;2114843;28;19971;-40
2022/11/06 02:14:20;;;;;;;;;;;;;;;;;;2114908;28;20018;-42
2022/11/06 02:15:21;;;;;;;;;;;;;;;;;;2114918;28;19923;-42
2022/11/06 02:16:22;;;;;;;;;;;;;;;;;;2115244;28;19920;-45
2022/11/06 02:17:23;;;;;;;;;;;;;;;;;;2114981;28;19919;-45
2022/11/06 02:18:24;;;;;;;;;;;;;;;;;;2114836;28;19920;-45
2022/11/06 02:19:25;;;;;;;;;;;;;;;;;;2114850;28;20364;-46
2022/11/06 02:20:26;;;;;;;;;;;;;;;;;;2115404;28;19919;-44
2022/11/06 02:21:26;;;;;;;;;;;;;;;;;;2114844;28;19986;-45
2022/11/06 02:22:27;;;;;;;;;;;;;;;;;;2114939;28;19974;-45
2022/11/06 02:23:28;;;;;;;;;;;;;;;;;;2114894;28;19919;-44
2022/11/06 02:24:29;;;;;;;;;;;;;;;;;;2114959;28;19919;-44
2022/11/06 02:25:30;;;;;;;;;;;;;;;;;;2114822;28;19920;-46
2022/11/06 02:26:31;;;;;;;;;;;;;;;;;;2114788;28;20379;-45
2022/11/06 02:27:32;;;;;;;;;;;;;;;;;;2114979;28;19951;-45
2022/11/06 02:28:32;;;;;;;;;;;;;;;;;;2114792;28;19988;-45
2022/11/06 02:29:33;;;;;;;;;;;;;;;;;;2114937;28;19958;-45
2022/11/06 02:30:34;;;;;;;;;;;;;;;;;;2114760;28;20441;-45
2022/11/06 02:31:35;;;;;;;;;;;;;;;;;;2114774;28;19934;-45
2022/11/06 02:32:36;;;;;;;;;;;;;;;;;;2114773;28;19920;-45
2022/11/06 02:33:37;;;;;;;;;;;;;;;;;;2114780;28;19975;-45
2022/11/06 02:34:37;;;;;;;;;;;;;;;;;;2115020;28;19920;-45
2022/11/06 02:35:38;;;;;;;;;;;;;;;;;;2114748;28;20339;-45
2022/11/06 02:36:39;;;;;;;;;;;;;;;;;;2114917;28;20007;-45
2022/11/06 02:37:40;;;;;;;;;;;;;;;;;;2114579;28;19919;-45
2022/11/06 02:38:41;;;;;;;;;;;;;;;;;;2114758;28;19926;-44
2022/11/06 02:39:42;;;;;;;;;;;;;;;;;;2114726;28;19920;-45
2022/11/06 02:40:42;;;;;;;;;;;;;;;;;;2114927;28;19920;-44
2022/11/06 02:41:43;;;;;;;;;;;;;;;;;;2114661;28;19970;-44
2022/11/06 02:42:44;;;;;;;;;;;;;;;;;;2114814;28;19926;-44
2022/11/06 02:43:45;;;;;;;;;;;;;;;;;;2114938;28;20295;-45
2022/11/06 02:44:46;;;;;;;;;;;;;;;;;;2114847;28;19919;-46
2022/11/06 02:45:47;;;;;;;;;;;;;;;;;;2114704;28;20367;-46
2022/11/06 02:46:47;;;;;;;;;;;;;;;;;;2114672;28;19959;-45
2022/11/06 02:47:48;;;;;;;;;;;;;;;;;;2114820;28;19954;-45
2022/11/06 02:48:49;;;;;;;;;;;;;;;;;;2114902;28;20215;-45
2022/11/06 02:49:50;;;;;;;;;;;;;;;;;;2114880;28;20014;-45
2022/11/06 02:50:51;;;;;;;;;;;;;;;;;;2114706;28;19924;-45
2022/11/06 02:51:51;;;;;;;;;;;;;;;;;;2114557;28;20360;-46
2022/11/06 02:52:52;;;;;;;;;;;;;;;;;;2114763;28;19943;-45
2022/11/06 02:53:53;;;;;;;;;;;;;;;;;;2114564;28;19919;-45
2022/11/06 02:54:54;;;;;;;;;;;;;;;;;;2114728;28;19920;-45
2022/11/06 02:55:55;;;;;;;;;;;;;;;;;;2114833;28;20026;-45
2022/11/06 02:56:56;;;;;;;;;;;;;;;;;;2114549;28;19924;-45
2022/11/06 02:57:57;;;;;;;;;;;;;;;;;;2114756;28;19919;-45
2022/11/06 02:58:57;;;;;;;;;;;;;;;;;;2114647;28;20022;-45
2022/11/06 02:59:58;;;;;;;;;;;;;;;;;;2114591;28;19920;-45
2022/11/06 03:00:59;;;;;;;;;;;;;;;;;;2114801;28;19919;-45
2022/11/06 03:02:00;;;;;;;;;;;;;;;;;;2114559;28;20366;-45
2022/11/06 03:03:01;;;;;;;;;;;;;;;;;;2114629;28;20288;-45
2022/11/06 03:04:02;;;;;;;;;;;;;;;;;;2114567;28;19923;-45
2022/11/06 03:05:03;;;;;;;;;;;;;;;;;;2114634;28;19919;-45
2022/11/06 03:06:04;;;;;;;;;;;;;;;;;;2114648;28;19919;-45
2022/11/06 03:07:04;;;;;;;;;;;;;;;;;;2114284;28;20338;-46
2022/11/06 03:08:05;;;;;;;;;;;;;;;;;;2119806;28;19919;-46
2022/11/06 03:09:06;;;;;;;;;;;;;;;;;;2123077;28;20014;-46
2022/11/06 03:10:07;;;;;;;;;;;;;;;;;;2123184;28;19925;-44
2022/11/06 03:11:08;;;;;;;;;;;;;;;;;;2123096;28;19926;-44
2022/11/06 03:12:09;;;;;;;;;;;;;;;;;;2122981;28;20283;-46
2022/11/06 03:13:09;;;;;;;;;;;;;;;;;;2123066;28;19934;-45
2022/11/06 03:14:10;;;;;;;;;;;;;;;;;;2123635;28;19920;-42
2022/11/06 03:15:11;;;;;;;;;;;;;;;;;;2123028;28;19963;-42
2022/11/06 03:16:12;;;;;;;;;;;;;;;;;;2123280;28;19919;-46
2022/11/06 03:17:13;;;;;;;;;;;;;;;;;;2122967;28;20013;-45
2022/11/06 03:18:14;;;;;;;;;;;;;;;;;;2123141;28;19926;-46
2022/11/06 03:19:15;;;;;;;;;;;;;;;;;;2123483;28;19923;-42
2022/11/06 03:20:16;;;;;;;;;;;;;;;;;;2122995;28;19926;-42
2022/11/06 03:21:16;;;;;;;;;;;;;;;;;;2123134;28;19972;-42
2022/11/06 03:22:17;;;;;;;;;;;;;;;;;;2123149;28;19959;-42
2022/11/06 03:23:18;;;;;;;;;;;;;;;;;;2123156;28;19926;-42
2022/11/06 03:24:19;;;;;;;;;;;;;;;;;;2123037;28;19974;-42
2022/11/06 03:25:20;;;;;;;;;;;;;;;;;;2123034;28;19962;-42
2022/11/06 03:26:21;;;;;;;;;;;;;;;;;;2123030;28;19928;-42
2022/11/06 03:27:21;;;;;;;;;;;;;;;;;;2122959;28;20018;-42
2022/11/06 03:28:22;;;;;;;;;;;;;;;;;;2123099;28;19919;-42
2022/11/06 03:29:23;;;;;;;;;;;;;;;;;;2123110;28;20451;-42
2022/11/06 03:30:24;;;;;;;;;;;;;;;;;;2123302;28;19958;-45
2022/11/06 03:31:25;;;;;;;;;;;;;;;;;;2123155;28;20376;-42
2022/11/06 03:32:26;;;;;;;;;;;;;;;;;;2123247;28;19962;-45
2022/11/06 03:33:26;;;;;;;;;;;;;;;;;;2122901;28;20368;-45
2022/11/06 03:34:27;;;;;;;;;;;;;;;;;;2122948;28;19970;-45
2022/11/06 03:35:28;;;;;;;;;;;;;;;;;;2122949;28;19967;-46
2022/11/06 03:36:29;;;;;;;;;;;;;;;;;;2122943;28;19920;-46
2022/11/06 03:37:30;;;;;;;;;;;;;;;;;;2122949;28;19955;-45
2022/11/06 03:38:31;;;;;;;;;;;;;;;;;;2123071;28;19985;-45
2022/11/06 03:39:31;;;;;;;;;;;;;;;;;;2123075;28;19919;-45
2022/11/06 03:40:32;;;;;;;;;;;;;;;;;;2122942;28;20455;-45
2022/11/06 03:41:33;;;;;;;;;;;;;;;;;;2122926;28;19919;-44
2022/11/06 03:42:34;;;;;;;;;;;;;;;;;;2122828;28;19920;-45
2022/11/06 03:43:34;;;;;;;;;;;;;;;;;;2122957;28;20256;-44
2022/11/06 03:44:35;;;;;;;;;;;;;;;;;;2122828;28;19926;-46
2022/11/06 03:45:36;;;;;;;;;;;;;;;;;;2122943;28;19920;-44
2022/11/06 03:46:37;;;;;;;;;;;;;;;;;;2122979;28;19942;-45
2022/11/06 03:47:38;;;;;;;;;;;;;;;;;;2122813;28;19961;-45
2022/11/06 03:48:39;;;;;;;;;;;;;;;;;;2122927;28;20023;-46
2022/11/06 03:49:40;;;;;;;;;;;;;;;;;;2123330;27;19963;-46
2022/11/06 03:50:40;;;;;;;;;;;;;;;;;;2124377;28;19925;-44
2022/11/06 03:51:41;;;;;;;;;;;;;;;;;;2122244;28;20145;-45
2022/11/06 03:52:42;;;;;;;;;;;;;;;;;;2115779;28;20052;-45
2022/11/06 03:53:43;;;;;;;;;;;;;;;;;;2115720;28;20364;-45
2022/11/06 03:54:44;;;;;;;;;;;;;;;;;;2115956;28;19926;-45
2022/11/06 03:55:45;;;;;;;;;;;;;;;;;;2115727;28;19993;-45
2022/11/06 03:56:46;;;;;;;;;;;;;;;;;;2115859;28;19927;-45
2022/11/06 03:57:47;;;;;;;;;;;;;;;;;;2115740;28;19923;-45
2022/11/06 03:58:48;;;;;;;;;;;;;;;;;;2115894;28;20011;-45
2022/11/06 03:59:49;;;;;;;;;;;;;;;;;;2115850;28;20363;-45
2022/11/06 04:00:49;;;;;;;;;;;;;;;;;;2115737;28;19963;-45
2022/11/06 04:01:50;;;;;;;;;;;;;;;;;;2115819;28;19926;-45
2022/11/06 04:02:51;;;;;;;;;;;;;;;;;;2115444;28;20310;-45
2022/11/06 04:03:52;;;;;;;;;;;;;;;;;;2115865;28;19923;-45
2022/11/06 04:04:53;;;;;;;;;;;;;;;;;;2115750;28;19920;-45
2022/11/06 04:05:54;;;;;;;;;;;;;;;;;;2115870;28;19959;-45
2022/11/06 04:06:55;;;;;;;;;;;;;;;;;;2115665;28;19998;-45
2022/11/06 04:14:33;;;;;;;;;;;;;;;;;;2115864;28;19920;-42
2022/11/06 04:15:34;;;;;;;;;;;;;;;;;;2115679;28;19964;-42
2022/11/06 04:16:35;;;;;;;;;;;;;;;;;;2115649;28;19957;-42
2022/11/06 04:17:35;;;;;;;;;;;;;;;;;;2115700;28;19924;-42
2022/11/06 04:18:36;;;;;;;;;;;;;;;;;;2115664;28;20328;-42
2022/11/06 04:19:37;;;;;;;;;;;;;;;;;;2115753;28;19993;-42
2022/11/06 04:21:57;;;;;;;;;;;;;;;;;;2115800;28;20384;-45
2022/11/06 04:22:58;;;;;;;;;;;;;;;;;;2115575;28;19919;-44
2022/11/06 04:26:38;;;;;;;;;;;;;;;;;;2115746;28;19920;-42
2022/11/06 04:27:38;;;;;;;;;;;;;;;;;;2115472;28;19919;-42
2022/11/06 04:28:39;;;;;;;;;;;;;;;;;;2115740;28;19920;-42
2022/11/06 04:29:40;;;;;;;;;;;;;;;;;;2115589;28;19920;-42
2022/11/06 04:30:41;;;;;;;;;;;;;;;;;;2115941;28;19963;-42
2022/11/06 04:31:41;;;;;;;;;;;;;;;;;;2115589;28;20257;-42
2022/11/06 04:32:42;;;;;;;;;;;;;;;;;;2115496;28;19919;-42
2022/11/06 04:33:43;;;;;;;;;;;;;;;;;;2115429;28;20291;-42
2022/11/06 04:34:44;;;;;;;;;;;;;;;;;;2115687;28;19919;-42
2022/11/06 04:35:45;;;;;;;;;;;;;;;;;;2115687;28;20016;-42
2022/11/06 04:36:46;;;;;;;;;;;;;;;;;;2115619;28;19978;-42
2022/11/06 04:37:46;;;;;;;;;;;;;;;;;;2115691;28;19951;-45
2022/11/06 04:38:47;;;;;;;;;;;;;;;;;;2115716;28;20328;-42
2022/11/06 04:39:48;;;;;;;;;;;;;;;;;;2115650;28;19920;-43
2022/11/06 04:40:49;;;;;;;;;;;;;;;;;;2115483;28;20022;-43
2022/11/06 04:41:50;;;;;;;;;;;;;;;;;;2115457;28;20018;-42
2022/11/06 04:42:51;;;;;;;;;;;;;;;;;;2115748;28;19920;-45
2022/11/06 04:43:52;;;;;;;;;;;;;;;;;;2115573;28;20383;-46
2022/11/06 04:44:53;;;;;;;;;;;;;;;;;;2115856;28;19920;-45
2022/11/06 04:45:54;;;;;;;;;;;;;;;;;;2115641;28;20354;-45
2022/11/06 04:46:55;;;;;;;;;;;;;;;;;;2115540;28;19992;-45
2022/11/06 04:47:56;;;;;;;;;;;;;;;;;;2115426;28;19923;-45
2022/11/06 04:48:56;;;;;;;;;;;;;;;;;;2115905;28;19927;-42
2022/11/06 04:49:57;;;;;;;;;;;;;;;;;;2115729;28;19930;-46
2022/11/06 04:50:58;;;;;;;;;;;;;;;;;;2115568;28;20410;-44
2022/11/06 04:51:59;;;;;;;;;;;;;;;;;;2115208;28;20082;-44
2022/11/06 04:53:00;;;;;;;;;;;;;;;;;;2115561;28;19926;-44
2022/11/06 04:54:01;;;;;;;;;;;;;;;;;;2115302;28;20287;-45
2022/11/06 04:55:02;;;;;;;;;;;;;;;;;;2115980;28;19919;-42
2022/11/06 04:56:02;;;;;;;;;;;;;;;;;;2115509;28;19964;-42
2022/11/06 04:57:03;;;;;;;;;;;;;;;;;;2115291;28;19919;-42
2022/11/06 04:58:04;;;;;;;;;;;;;;;;;;2115424;28;20370;-42
2022/11/06 04:59:05;;;;;;;;;;;;;;;;;;2115662;28;19983;-42
2022/11/06 05:00:06;;;;;;;;;;;;;;;;;;2115597;28;19924;-42
2022/11/06 05:01:07;;;;;;;;;;;;;;;;;;2115412;28;19919;-42
2022/11/06 05:02:08;;;;;;;;;;;;;;;;;;2115280;28;19966;-43
2022/11/06 05:03:08;;;;;;;;;;;;;;;;;;2115398;28;19965;-42
2022/11/06 05:04:09;;;;;;;;;;;;;;;;;;2115841;28;19920;-45
2022/11/06 05:05:10;;;;;;;;;;;;;;;;;;2115480;28;19920;-46
2022/11/06 05:06:11;;;;;;;;;;;;;;;;;;2115380;28;20283;-45
2022/11/06 05:07:12;;;;;;;;;;;;;;;;;;2115448;28;20033;-46
2022/11/06 05:08:13;;;;;;;;;;;;;;;;;;2115551;28;19923;-42
2022/11/06 05:09:14;;;;;;;;;;;;;;;;;;2115669;28;19966;-45
2022/11/06 05:10:15;;;;;;;;;;;;;;;;;;2115762;28;20007;-42
2022/11/06 05:11:15;;;;;;;;;;;;;;;;;;2115494;28;20396;-42
2022/11/06 05:12:17;;;;;;;;;;;;;;;;;;2115164;28;20061;-42
2022/11/06 05:13:18;;;;;;;;;;;;;;;;;;2115256;28;19919;-42
2022/11/06 05:14:19;;;;;;;;;;;;;;;;;;2115397;28;20423;-42
2022/11/06 05:15:20;;;;;;;;;;;;;;;;;;2115404;28;19924;-42
2022/11/06 05:16:21;;;;;;;;;;;;;;;;;;2115506;28;20412;-45
2022/11/06 05:17:21;;;;;;;;;;;;;;;;;;2115408;28;19964;-46
2022/11/06 05:18:22;;;;;;;;;;;;;;;;;;2119642;28;19965;-45
2022/11/06 05:19:23;;;;;;;;;;;;;;;;;;2123822;28;19919;-45
2022/11/06 05:20:24;;;;;;;;;;;;;;;;;;2124122;28;19928;-46
2022/11/06 05:22:59;;;;;;;;;;;;;;;;;;2123690;28;19989;-46
2022/11/06 05:24:00;;;;;;;;;;;;;;;;;;2123708;28;20022;-45
2022/11/06 05:25:01;;;;;;;;;;;;;;;;;;2123822;28;19926;-45
2022/11/06 05:26:02;;;;;;;;;;;;;;;;;;2123801;28;19919;-45
2022/11/06 05:27:02;;;;;;;;;;;;;;;;;;2123822;28;19962;-46
2022/11/06 05:28:05;;;;;;;;;;;;;;;;;;2124071;28;20058;-42
2022/11/06 05:29:06;;;;;;;;;;;;;;;;;;2123724;28;20379;-42
2022/11/06 05:30:07;;;;;;;;;;;;;;;;;;2123605;28;19966;-42
2022/11/06 05:31:08;;;;;;;;;;;;;;;;;;2123697;28;20386;-42
2022/11/06 05:32:08;;;;;;;;;;;;;;;;;;2124088;28;20408;-42
2022/11/06 05:33:09;;;;;;;;;;;;;;;;;;2123634;28;19920;-42
2022/11/06 05:34:10;;;;;;;;;;;;;;;;;;2123876;28;20034;-42
2022/11/06 05:35:11;;;;;;;;;;;;;;;;;;2123614;28;19920;-46
2022/11/06 05:36:12;;;;;;;;;;;;;;;;;;2123754;28;19926;-46
2022/11/06 05:37:13;;;;;;;;;;;;;;;;;;2123608;28;20352;-45
2022/11/06 05:38:14;;;;;;;;;;;;;;;;;;2124035;28;20026;-42
2022/11/06 05:39:15;;;;;;;;;;;;;;;;;;2123819;28;19931;-45
2022/11/06 05:40:16;;;;;;;;;;;;;;;;;;2123736;28;20022;-46
2022/11/06 05:41:17;;;;;;;;;;;;;;;;;;2123729;28;19919;-45
2022/11/06 05:42:17;;;;;;;;;;;;;;;;;;2123784;28;19942;-46
2022/11/06 05:43:18;;;;;;;;;;;;;;;;;;2123829;28;19970;-46
2022/11/06 05:44:19;;;;;;;;;;;;;;;;;;2123821;28;19919;-45
2022/11/06 05:45:20;;;;;;;;;;;;;;;;;;2124059;28;20010;-42
2022/11/06 05:46:21;;;;;;;;;;;;;;;;;;2123750;28;19919;-42
2022/11/06 05:47:43;;;;;;;;;;;;;;;;;;2123609;28;20295;-42
2022/11/06 05:48:44;;;;;;;;;;;;;;;;;;2123706;28;19980;-45
2022/11/06 05:49:45;;;;;;;;;;;;;;;;;;2123714;28;19920;-45
2022/11/06 05:50:45;;;;;;;;;;;;;;;;;;2123528;28;19979;-45
2022/11/06 05:51:46;;;;;;;;;;;;;;;;;;2121076;28;19926;-45
2022/11/06 05:52:47;;;;;;;;;;;;;;;;;;2115305;28;19934;-47
2022/11/06 05:53:48;;;;;;;;;;;;;;;;;;2115286;28;19943;-42
2022/11/06 05:54:49;;;;;;;;;;;;;;;;;;2115200;28;20018;-45
2022/11/06 05:55:50;;;;;;;;;;;;;;;;;;2115062;28;19919;-45
2022/11/06 05:56:51;;;;;;;;;;;;;;;;;;2115276;28;19926;-45
2022/11/06 05:57:51;;;;;;;;;;;;;;;;;;2115234;28;20280;-43
2022/11/06 05:58:52;;;;;;;;;;;;;;;;;;2115217;28;19927;-44
2022/11/06 05:59:53;;;;;;;;;;;;;;;;;;2115233;28;19958;-41
2022/11/06 06:00:54;;;;;;;;;;;;;;;;;;2114961;28;20322;-41
2022/11/06 06:01:55;;;;;;;;;;;;;;;;;;2115124;28;19924;-43
2022/11/06 06:02:56;;;;;;;;;;;;;;;;;;2115138;28;19930;-43
2022/11/06 06:03:57;;;;;;;;;;;;;;;;;;2115119;28;20303;-41
2022/11/06 06:04:58;;;;;;;;;;;;;;;;;;2114962;28;19966;-41
2022/11/06 06:05:59;;;;;;;;;;;;;;;;;;2115222;28;20014;-45
2022/11/06 06:06:59;;;;;;;;;;;;;;;;;;2114974;28;19965;-44
2022/11/06 06:08:00;;;;;;;;;;;;;;;;;;2115091;28;19950;-45
2022/11/06 06:09:01;;;;;;;;;;;;;;;;;;2114980;28;20363;-44
2022/11/06 06:10:02;;;;;;;;;;;;;;;;;;2114918;28;19959;-44
2022/11/06 06:11:03;;;;;;;;;;;;;;;;;;2114913;28;19966;-44
2022/11/06 06:12:04;;;;;;;;;;;;;;;;;;2115190;28;19931;-44
2022/11/06 06:13:05;;;;;;;;;;;;;;;;;;2114390;28;20372;-45
2022/11/06 06:14:06;;;;;;;;;;;;;;;;;;2114823;28;19966;-46
2022/11/06 06:15:06;;;;;;;;;;;;;;;;;;2115417;28;20288;-44
2022/11/06 06:16:07;;;;;;;;;;;;;;;;;;2115328;28;19920;-44
2022/11/06 06:17:08;;;;;;;;;;;;;;;;;;2114951;28;19926;-44
2022/11/06 06:18:09;;;;;;;;;;;;;;;;;;2115081;28;20261;-42
2022/11/06 06:19:10;;;;;;;;;;;;;;;;;;2114654;28;19958;-41
2022/11/06 06:20:11;;;;;;;;;;;;;;;;;;2114590;28;19920;-41
2022/11/06 06:21:12;;;;;;;;;;;;;;;;;;2114368;28;19958;-41
2022/11/06 06:22:13;;;;;;;;;;;;;;;;;;2114873;28;20445;-41
2022/11/06 06:23:14;;;;;;;;;;;;;;;;;;2122161;28;20018;-41
2022/11/06 06:24:14;;;;;;;;;;;;;;;;;;2123325;28;20376;-41
2022/11/06 06:25:15;;;;;;;;;;;;;;;;;;2123317;28;19930;-41
2022/11/06 06:26:23;;;;;;;;;;;;;;;;;;2123761;28;19965;-41
2022/11/06 06:27:26;;;;;;;;;;;;;;;;;;2123553;28;20367;-41
2022/11/06 06:28:27;;;;;;;;;;;;;;;;;;2123525;28;19919;-43
2022/11/06 06:29:27;;;;;;;;;;;;;;;;;;2123673;28;20025;-41
2022/11/06 06:30:28;;;;;;;;;;;;;;;;;;2123283;28;20006;-41
2022/11/06 06:31:29;;;;;;;;;;;;;;;;;;2124085;28;19972;-41
2022/11/06 06:32:30;;;;;;;;;;;;;;;;;;2123258;28;19919;-41
2022/11/06 06:33:31;;;;;;;;;;;;;;;;;;2123291;28;19919;-41
2022/11/06 06:34:32;;;;;;;;;;;;;;;;;;2123677;28;19919;-41
2022/11/06 06:35:32;;;;;;;;;;;;;;;;;;2123263;28;19919;-41
2022/11/06 06:36:33;;;;;;;;;;;;;;;;;;2123474;28;20023;-44
2022/11/06 06:37:34;;;;;;;;;;;;;;;;;;2123385;28;19919;-41
2022/11/06 06:38:35;;;;;;;;;;;;;;;;;;2123624;28;19951;-42
2022/11/06 06:39:36;;;;;;;;;;;;;;;;;;2123701;28;20355;-42
2022/11/06 06:40:36;;;;;;;;;;;;;;;;;;2123247;28;19972;-41
2022/11/06 06:41:38;;;;;;;;;;;;;;;;;;2123473;28;19923;-44
2022/11/06 06:42:38;;;;;;;;;;;;;;;;;;2123328;28;19920;-42
2022/11/06 06:43:39;;;;;;;;;;;;;;;;;;2123325;28;19919;-41
2022/11/06 06:44:40;;;;;;;;;;;;;;;;;;2123245;28;20014;-42
2022/11/06 06:45:41;;;;;;;;;;;;;;;;;;2123640;28;19919;-44
2022/11/06 06:46:42;;;;;;;;;;;;;;;;;;2123553;28;19925;-44
2022/11/06 06:47:43;;;;;;;;;;;;;;;;;;2123121;28;20356;-44
2022/11/06 06:48:44;;;;;;;;;;;;;;;;;;2123184;28;19972;-44
2022/11/06 06:49:44;;;;;;;;;;;;;;;;;;2123398;28;20017;-45
2022/11/06 06:50:46;;;;;;;;;;;;;;;;;;2123350;28;19984;-45
2022/11/06 06:51:46;;;;;;;;;;;;;;;;;;2120275;28;19920;-41
2022/11/06 06:52:47;;;;;;;;;;;;;;;;;;2115274;28;19930;-44
2022/11/06 06:53:48;;;;;;;;;;;;;;;;;;2114655;28;19964;-46
2022/11/06 06:54:49;;;;;;;;;;;;;;;;;;2114823;28;20272;-45
2022/11/06 06:55:49;;;;;;;;;;;;;;;;;;2115104;28;20010;-41
2022/11/06 06:56:50;;;;;;;;;;;;;;;;;;2115008;28;19973;-45
2022/11/06 06:57:51;;;;;;;;;;;;;;;;;;2114936;28;19927;-43
2022/11/06 06:58:52;;;;;;;;;;;;;;;;;;2114812;28;19927;-44
2022/11/06 06:59:53;;;;;;;;;;;;;;;;;;2114661;28;19927;-45
2022/11/06 07:00:54;;;;;;;;;;;;;;;;;;2114814;28;19927;-42
2022/11/06 07:01:56;;;;;;;;;;;;;;;;;;2115094;28;19920;-42
2022/11/06 07:02:57;;;;;;;;;;;;;;;;;;2114790;28;20403;-45
2022/11/06 07:03:58;;;;;;;;;;;;;;;;;;2114800;28;19958;-44
2022/11/06 07:05:04;;;;;;;;;;;;;;;;;;2114693;28;19920;-44
2022/11/06 07:06:05;;;;;;;;;;;;;;;;;;2114845;28;20379;-44
2022/11/06 07:07:06;;;;;;;;;;;;;;;;;;2114885;28;19923;-44
2022/11/06 07:08:07;;;;;;;;;;;;;;;;;;2114939;28;19926;-42
2022/11/06 07:09:08;;;;;;;;;;;;;;;;;;2115115;28;20394;-44
2022/11/06 07:10:08;;;;;;;;;;;;;;;;;;2114903;28;19920;-44